»·PEaware :: N1399 KCOS-KEGE

N1399 :: KCOS-KEGE

FLIGHT INFORMATION

Flight Status: Arrived
Operator: Privately registered:
United States
More flights under this callsign
Pilot: David C. (16084)
Aircraft: Unknown
(EPIC)
More flights by this aircraft type
Origin: KCOS City Of Colorado Springs Mun
United States
Destination: KEGE Eagle Co Regl
United States
More flights between these airports :: More routes between these airports
Route: BRK FQF RLG
File this flight plan on PilotEdge
Remarks:
Altitude:
(Current/Filed)
22,000ft
Speed:
(Current/Filed)
308kts
Departed: 03-Oct-19 02:20 PM
Arrived: 03-Oct-19 02:57 PM
Distance/Time
Traveled:
114nm/0:36
Distance/Time
To Go:
Arrived

Flight Plot

Page will automatically refresh every two minutes.

Flight plan parsing failed; only flown route is shown


Map Options




Map Legend


Flown Route
Filed Route
Departure Airport
Arrival Airport
Navaid (VOR, NDB)
Fix

Horizontal Profiles

Position Reports

Time Latitude Longitude Heading Altitude Ground
Speed
03-Oct-19 13:52 38.808884 -104.720102 178 6203ft 0kts
03-Oct-19 13:53 38.808884 -104.720102 179 6203ft 0kts
03-Oct-19 13:54 38.808884 -104.720102 178 6203ft 0kts
03-Oct-19 13:55 38.808884 -104.720102 179 6203ft 0kts
03-Oct-19 13:56 38.808884 -104.720102 178 6203ft 0kts
03-Oct-19 13:57 38.808884 -104.720102 178 6203ft 0kts
03-Oct-19 13:58 38.808884 -104.720102 178 6203ft 0kts
03-Oct-19 13:59 38.808884 -104.720102 179 6203ft 0kts
03-Oct-19 14:00 38.808884 -104.720102 179 6203ft 0kts
03-Oct-19 14:01 38.808884 -104.720102 178 6203ft 0kts
03-Oct-19 14:02 38.808884 -104.720102 178 6203ft 0kts
03-Oct-19 14:03 38.808884 -104.720102 179 6203ft 0kts
03-Oct-19 14:04 38.808884 -104.720102 179 6203ft 0kts
03-Oct-19 14:05 38.808884 -104.720102 179 6203ft 0kts
03-Oct-19 14:06 38.808884 -104.720102 179 6203ft 0kts
03-Oct-19 14:07 38.808884 -104.720102 178 6203ft 0kts
03-Oct-19 14:08 38.808884 -104.720102 178 6203ft 0kts
03-Oct-19 14:09 38.809451 -104.719657 6 6203ft 14kts
03-Oct-19 14:10 38.811903 -104.719653 6 6203ft 0kts
03-Oct-19 14:11 38.811911 -104.719652 6 6203ft 0kts
03-Oct-19 14:12 38.811911 -104.719652 6 6203ft 0kts
03-Oct-19 14:13 38.812586 -104.719004 83 6203ft 9kts
03-Oct-19 14:14 38.814595 -104.717339 3 6203ft 17kts
03-Oct-19 14:15 38.821037 -104.717312 359 6203ft 25kts
03-Oct-19 14:16 38.822188 -104.717122 38 6203ft 0kts
03-Oct-19 14:17 38.822188 -104.717122 38 6203ft 0kts
03-Oct-19 14:18 38.822486 -104.716243 91 6203ft 5kts
03-Oct-19 14:19 38.810075 -104.715902 177 6389ft 123kts
03-Oct-19 14:20 38.766336 -104.713097 177 8511ft 190kts
03-Oct-19 14:21 38.715056 -104.692708 111 10948ft 229kts
03-Oct-19 14:22 38.739796 -104.621363 22 13450ft 239kts
03-Oct-19 14:23 38.800526 -104.586522 19 15861ft 239kts
03-Oct-19 14:24 38.862810 -104.580233 350 18280ft 223kts
03-Oct-19 14:25 38.927233 -104.583370 351 20717ft 239kts
03-Oct-19 14:26 38.996332 -104.586792 353 22331ft 278kts
03-Oct-19 14:27 39.083189 -104.590949 355 22324ft 338kts
03-Oct-19 14:28 39.179064 -104.606797 319 22306ft 351kts
03-Oct-19 14:29 39.245959 -104.697495 307 22286ft 354kts
03-Oct-19 14:30 39.313746 -104.791825 308 22258ft 357kts
03-Oct-19 14:31 39.381564 -104.886257 308 22211ft 359kts
03-Oct-19 14:32 39.450184 -104.980241 308 22209ft 355kts
03-Oct-19 14:33 39.518901 -105.071991 308 22209ft 348kts
03-Oct-19 14:34 39.586459 -105.161096 308 22219ft 340kts
03-Oct-19 14:35 39.652853 -105.248235 308 22232ft 336kts
03-Oct-19 14:36 39.718765 -105.334567 308 22231ft 336kts
03-Oct-19 14:37 39.764636 -105.433283 282 22232ft 320kts
03-Oct-19 14:38 39.791105 -105.543891 282 22247ft 320kts
03-Oct-19 14:39 39.817466 -105.654006 282 22262ft 320kts
03-Oct-19 14:40 39.844174 -105.766086 282 21982ft 325kts
03-Oct-19 14:41 39.871141 -105.879805 282 20505ft 331kts
03-Oct-19 14:42 39.898309 -105.994902 283 19019ft 330kts
03-Oct-19 14:43 39.924897 -106.108160 283 17527ft 326kts
03-Oct-19 14:44 39.951086 -106.220157 283 16100ft 310kts
03-Oct-19 14:45 39.974491 -106.320863 283 16037ft 281kts
03-Oct-19 14:46 39.990580 -106.420298 249 16041ft 283kts
03-Oct-19 14:47 39.923939 -106.475696 201 15010ft 299kts
03-Oct-19 14:48 39.847370 -106.507922 201 13833ft 273kts
03-Oct-19 14:49 39.779585 -106.535936 201 13828ft 249kts
03-Oct-19 14:50 39.712125 -106.564949 214 13340ft 261kts
03-Oct-19 14:51 39.678730 -106.647816 251 11456ft 259kts
03-Oct-19 14:52 39.663789 -106.728111 259 9864ft 204kts
03-Oct-19 14:53 39.655236 -106.798861 259 8677ft 190kts
03-Oct-19 14:54 39.649757 -106.855119 259 7577ft 129kts
03-Oct-19 14:55 39.644946 -106.897034 259 6680ft 114kts
03-Oct-19 14:56 39.642093 -106.917509 169 6548ft 7kts
03-Oct-19 14:57 39.642038 -106.913511 82 6548ft 16kts
03-Oct-19 14:58 39.641362 -106.910040 74 6548ft 0kts
03-Oct-19 14:59 39.641362 -106.910040 74 6548ft 0kts

Navigation Log

Ident Type
Flight plan parsing failed, navigation log unavailable